Decoded Metar for KJNX (SMITHFIELD JOHNS in NC, USA) (IATA:JNX) | Meteo·Mobile Aviation Weather
aviador You're here:

KJNX Decoded Metar

SMITHFIELD JOHNS in NC, USA
Report Time2019-03-25 13:25:00
UTC Time2019-03-25 13:46:38
Flight Rules vfr VFR
Wind190° at 04 kt
W.Decomp.*RWY 21: 3.9 kt HW 0.8 kt LCW
W.Rank190° ranks 8
Current wind is below 190° avg. (6.1)
Visibility9999 m
Phenomena:N/A
Clouds:Scattered 120 Hf
Expected CloudBase > 1,200 ft AGL from Temp-Dew spread
CeilingNone
Temp14°C (ISA -1)
Dew Point11°C (82% RH)
AAT12.9°C
QNH1018 hPa
Density Alt92 ft
Elevation164 ft
Report Wrong Elevation
Raw Report
METAR KJNX 251325Z AUTO 19004KT 10SM SCT120 14/11 A3007 RMK AO2=

Extra information for KJNX:More info

Metar Taf Metar & Taf Last 4 Metars F.Rules Stats Wind Profile Meteogram Temp Stats Airport Information Weather charts Add Link Nearby VenuesMetar ALERT Operation Metar Decoded Social comments

AIRNAV info for KJNX